sensor_id;sensor_type;location;lat;lon;timestamp;pressure;altitude;pressure_sealevel;temperature;humidity
67738;BME280;54534;43.612;1.572;2022-07-09T00:01:46;99907.41;;;25.65;45.86
67738;BME280;54534;43.612;1.572;2022-07-09T00:04:12;99902.16;;;25.64;45.88
67738;BME280;54534;43.612;1.572;2022-07-09T00:06:37;99912.78;;;25.65;46.24
67738;BME280;54534;43.612;1.572;2022-07-09T00:09:03;99904.03;;;25.63;46.23
67738;BME280;54534;43.612;1.572;2022-07-09T00:11:28;99907.72;;;25.62;46.17
67738;BME280;54534;43.612;1.572;2022-07-09T00:13:54;99910.25;;;25.64;45.83
67738;BME280;54534;43.612;1.572;2022-07-09T00:16:19;99898.63;;;25.63;46.06
67738;BME280;54534;43.612;1.572;2022-07-09T00:18:45;99903.19;;;25.63;46.01
67738;BME280;54534;43.612;1.572;2022-07-09T00:21:10;99898.63;;;25.63;46.14
67738;BME280;54534;43.612;1.572;2022-07-09T00:23:35;99898.63;;;25.63;46.13
67738;BME280;54534;43.612;1.572;2022-07-09T00:26:01;99897.94;;;25.61;46.18
67738;BME280;54534;43.612;1.572;2022-07-09T00:28:26;99901.34;;;25.63;46.26
67738;BME280;54534;43.612;1.572;2022-07-09T00:30:51;99890.69;;;25.62;45.99
67738;BME280;54534;43.612;1.572;2022-07-09T00:33:17;99889.72;;;25.63;45.92
67738;BME280;54534;43.612;1.572;2022-07-09T00:35:42;99890.69;;;25.62;45.96
67738;BME280;54534;43.612;1.572;2022-07-09T00:38:08;99889.84;;;25.61;46.14
67738;BME280;54534;43.612;1.572;2022-07-09T00:40:33;99889.84;;;25.61;46.23
67738;BME280;54534;43.612;1.572;2022-07-09T00:43:00;99890.69;;;25.62;45.84
67738;BME280;54534;43.612;1.572;2022-07-09T00:45:25;99889.84;;;25.61;46.17
67738;BME280;54534;43.612;1.572;2022-07-09T00:47:51;99889.84;;;25.61;46.20
67738;BME280;54534;43.612;1.572;2022-07-09T00:50:16;99889.84;;;25.61;46.03
67738;BME280;54534;43.612;1.572;2022-07-09T00:52:43;99890.88;;;25.60;45.83
67738;BME280;54534;43.612;1.572;2022-07-09T00:55:09;99886.34;;;25.61;45.87
67738;BME280;54534;43.612;1.572;2022-07-09T00:57:35;99882.78;;;25.60;46.24
67738;BME280;54534;43.612;1.572;2022-07-09T01:00:01;99879.25;;;25.60;46.09
67738;BME280;54534;43.612;1.572;2022-07-09T01:02:27;99881.94;;;25.60;46.04
67738;BME280;54534;43.612;1.572;2022-07-09T01:04:52;99881.94;;;25.60;46.12
67738;BME280;54534;43.612;1.572;2022-07-09T01:07:18;99873.84;;;25.60;45.92
67738;BME280;54534;43.612;1.572;2022-07-09T01:09:43;99870.31;;;25.59;45.89
67738;BME280;54534;43.612;1.572;2022-07-09T01:12:09;99878.38;;;25.59;45.91
67738;BME280;54534;43.612;1.572;2022-07-09T01:14:34;99865.94;;;25.58;45.96
67738;BME280;54534;43.612;1.572;2022-07-09T01:17:02;99875.69;;;25.59;46.22
67738;BME280;54534;43.612;1.572;2022-07-09T01:19:28;99869.47;;;25.59;46.02
67738;BME280;54534;43.612;1.572;2022-07-09T01:21:54;99862.41;;;25.58;45.88
67738;BME280;54534;43.612;1.572;2022-07-09T01:24:20;99857.88;;;25.58;46.11
67738;BME280;54534;43.612;1.572;2022-07-09T01:26:45;99846.25;;;25.58;46.31
67738;BME280;54534;43.612;1.572;2022-07-09T01:29:11;99858.84;;;25.57;46.16
67738;BME280;54534;43.612;1.572;2022-07-09T01:31:36;99860.56;;;25.58;45.85
67738;BME280;54534;43.612;1.572;2022-07-09T01:34:02;99851.75;;;25.56;46.11
67738;BME280;54534;43.612;1.572;2022-07-09T01:36:27;99850.78;;;25.57;46.29
67738;BME280;54534;43.612;1.572;2022-07-09T01:38:52;99855.31;;;25.57;46.04
67738;BME280;54534;43.612;1.572;2022-07-09T01:41:18;99851.63;;;25.58;46.18
67738;BME280;54534;43.612;1.572;2022-07-09T01:43:43;99858.00;;;25.57;45.89
67738;BME280;54534;43.612;1.572;2022-07-09T01:46:09;99863.38;;;25.57;45.91
67738;BME280;54534;43.612;1.572;2022-07-09T01:48:34;99852.63;;;25.57;45.93
67738;BME280;54534;43.612;1.572;2022-07-09T01:51:01;99850.78;;;25.57;45.85
67738;BME280;54534;43.612;1.572;2022-07-09T01:53:26;99847.22;;;25.57;46.10
67738;BME280;54534;43.612;1.572;2022-07-09T01:55:52;99842.00;;;25.55;45.90
67738;BME280;54534;43.612;1.572;2022-07-09T01:58:17;99847.41;;;25.55;46.24
67738;BME280;54534;43.612;1.572;2022-07-09T02:00:43;99848.25;;;25.55;46.07
67738;BME280;54534;43.612;1.572;2022-07-09T02:03:09;99849.06;;;25.56;46.30
67738;BME280;54534;43.612;1.572;2022-07-09T02:05:34;99844.72;;;25.55;45.91
67738;BME280;54534;43.612;1.572;2022-07-09T02:07:59;99847.41;;;25.55;45.85
67738;BME280;54534;43.612;1.572;2022-07-09T02:10:25;99850.09;;;25.55;45.99
67738;BME280;54534;43.612;1.572;2022-07-09T02:12:50;99852.78;;;25.55;46.11
67738;BME280;54534;43.612;1.572;2022-07-09T02:15:16;99856.47;;;25.54;46.14
67738;BME280;54534;43.612;1.572;2022-07-09T02:17:41;99848.38;;;25.54;46.00
67738;BME280;54534;43.612;1.572;2022-07-09T02:20:07;99853.78;;;25.54;45.85
67738;BME280;54534;43.612;1.572;2022-07-09T02:22:34;99855.63;;;25.53;46.01
67738;BME280;54534;43.612;1.572;2022-07-09T02:24:59;99855.63;;;25.53;45.70
67738;BME280;54534;43.612;1.572;2022-07-09T02:27:25;99849.41;;;25.53;46.00
67738;BME280;54534;43.612;1.572;2022-07-09T02:29:50;99855.63;;;25.53;46.11
67738;BME280;54534;43.612;1.572;2022-07-09T02:32:15;99845.88;;;25.52;46.02
67738;BME280;54534;43.612;1.572;2022-07-09T02:34:41;99847.69;;;25.52;45.71
67738;BME280;54534;43.612;1.572;2022-07-09T02:37:07;99842.31;;;25.52;45.69
67738;BME280;54534;43.612;1.572;2022-07-09T02:39:33;99840.63;;;25.51;45.87
67738;BME280;54534;43.612;1.572;2022-07-09T02:41:58;99849.53;;;25.51;45.73
67738;BME280;54534;43.612;1.572;2022-07-09T02:44:24;99852.22;;;25.51;45.78
67738;BME280;54534;43.612;1.572;2022-07-09T02:46:49;99852.22;;;25.51;46.07
67738;BME280;54534;43.612;1.572;2022-07-09T02:49:15;99850.56;;;25.50;45.70
67738;BME280;54534;43.612;1.572;2022-07-09T02:51:41;99852.22;;;25.51;45.83
67738;BME280;54534;43.612;1.572;2022-07-09T02:54:07;99856.78;;;25.51;45.72
67738;BME280;54534;43.612;1.572;2022-07-09T02:56:33;99854.94;;;25.51;45.65
67738;BME280;54534;43.612;1.572;2022-07-09T02:58:58;99855.09;;;25.50;45.68
67738;BME280;54534;43.612;1.572;2022-07-09T03:01:23;99859.63;;;25.49;45.67
67738;BME280;54534;43.612;1.572;2022-07-09T03:03:49;99858.78;;;25.49;45.79
67738;BME280;54534;43.612;1.572;2022-07-09T03:06:15;99865.88;;;25.50;46.07
67738;BME280;54534;43.612;1.572;2022-07-09T03:08:40;99857.91;;;25.48;45.75
67738;BME280;54534;43.612;1.572;2022-07-09T03:11:06;99853.38;;;25.49;45.68
67738;BME280;54534;43.612;1.572;2022-07-09T03:13:32;99858.78;;;25.49;46.02
67738;BME280;54534;43.612;1.572;2022-07-09T03:15:58;99858.78;;;25.49;45.89
67738;BME280;54534;43.612;1.572;2022-07-09T03:18:24;99864.16;;;25.49;46.02
67738;BME280;54534;43.612;1.572;2022-07-09T03:20:49;99865.19;;;25.48;46.02
67738;BME280;54534;43.612;1.572;2022-07-09T03:23:16;99867.88;;;25.48;45.70
67738;BME280;54534;43.612;1.572;2022-07-09T03:25:41;99868.84;;;25.47;46.02
67738;BME280;54534;43.612;1.572;2022-07-09T03:28:07;99870.56;;;25.48;45.87
67738;BME280;54534;43.612;1.572;2022-07-09T03:30:32;99875.94;;;25.48;45.87
67738;BME280;54534;43.612;1.572;2022-07-09T03:32:58;99874.25;;;25.47;45.83
67738;BME280;54534;43.612;1.572;2022-07-09T03:35:23;99877.78;;;25.47;45.64
67738;BME280;54534;43.612;1.572;2022-07-09T03:37:48;99874.25;;;25.47;45.99
67738;BME280;54534;43.612;1.572;2022-07-09T03:40:14;99874.25;;;25.47;45.65
67738;BME280;54534;43.612;1.572;2022-07-09T03:42:39;99886.84;;;25.46;45.90
67738;BME280;54534;43.612;1.572;2022-07-09T03:45:05;99886.00;;;25.46;45.68
67738;BME280;54534;43.612;1.572;2022-07-09T03:47:31;99882.47;;;25.45;45.77
67738;BME280;54534;43.612;1.572;2022-07-09T03:49:56;99880.63;;;25.46;45.89
67738;BME280;54534;43.612;1.572;2022-07-09T03:52:21;99884.31;;;25.44;45.83
67738;BME280;54534;43.612;1.572;2022-07-09T03:54:47;99872.69;;;25.44;45.90
67738;BME280;54534;43.612;1.572;2022-07-09T03:57:12;99878.09;;;25.44;45.86
67738;BME280;54534;43.612;1.572;2022-07-09T03:59:37;99886.16;;;25.44;46.05
67738;BME280;54534;43.612;1.572;2022-07-09T04:02:04;99874.53;;;25.43;45.94
67738;BME280;54534;43.612;1.572;2022-07-09T04:04:30;99881.75;;;25.43;45.63
67738;BME280;54534;43.612;1.572;2022-07-09T04:06:56;99884.47;;;25.43;45.58
67738;BME280;54534;43.612;1.572;2022-07-09T04:09:21;99888.84;;;25.44;45.89
67738;BME280;54534;43.612;1.572;2022-07-09T04:11:47;99879.94;;;25.43;46.03
67738;BME280;54534;43.612;1.572;2022-07-09T04:14:12;99878.25;;;25.42;45.97
67738;BME280;54534;43.612;1.572;2022-07-09T04:16:39;99885.47;;;25.42;45.65
67738;BME280;54534;43.612;1.572;2022-07-09T04:19:05;99881.94;;;25.41;45.92
67738;BME280;54534;43.612;1.572;2022-07-09T04:21:30;99881.06;;;25.41;45.73
67738;BME280;54534;43.612;1.572;2022-07-09T04:23:56;99881.94;;;25.41;45.81
67738;BME280;54534;43.612;1.572;2022-07-09T04:26:21;99883.78;;;25.41;45.75
67738;BME280;54534;43.612;1.572;2022-07-09T04:28:47;99883.78;;;25.41;45.93
67738;BME280;54534;43.612;1.572;2022-07-09T04:31:12;99882.91;;;25.40;45.76
67738;BME280;54534;43.612;1.572;2022-07-09T04:33:38;99883.94;;;25.39;45.61
67738;BME280;54534;43.612;1.572;2022-07-09T04:36:04;99881.25;;;25.39;45.75
67738;BME280;54534;43.612;1.572;2022-07-09T04:38:29;99887.47;;;25.40;45.50
67738;BME280;54534;43.612;1.572;2022-07-09T04:40:55;99885.78;;;25.39;45.84
67738;BME280;54534;43.612;1.572;2022-07-09T04:43:20;99886.63;;;25.39;45.81
67738;BME280;54534;43.612;1.572;2022-07-09T04:45:46;99884.91;;;25.38;45.45
67738;BME280;54534;43.612;1.572;2022-07-09T04:48:11;99889.44;;;25.38;45.61
67738;BME280;54534;43.612;1.572;2022-07-09T04:50:37;99892.16;;;25.38;45.86
67738;BME280;54534;43.612;1.572;2022-07-09T04:53:02;99889.44;;;25.38;45.75
67738;BME280;54534;43.612;1.572;2022-07-09T04:55:28;99887.78;;;25.37;45.77
67738;BME280;54534;43.612;1.572;2022-07-09T04:57:53;99895.84;;;25.37;45.77
67738;BME280;54534;43.612;1.572;2022-07-09T05:00:18;99901.22;;;25.37;45.56
67738;BME280;54534;43.612;1.572;2022-07-09T05:02:44;99897.69;;;25.36;45.68
67738;BME280;54534;43.612;1.572;2022-07-09T05:05:10;99896.84;;;25.36;45.54
67738;BME280;54534;43.612;1.572;2022-07-09T05:07:36;99913.84;;;25.36;45.47
67738;BME280;54534;43.612;1.572;2022-07-09T05:10:02;99907.59;;;25.36;45.83
67738;BME280;54534;43.612;1.572;2022-07-09T05:12:29;99907.59;;;25.36;45.62
67738;BME280;54534;43.612;1.572;2022-07-09T05:14:54;99909.44;;;25.35;45.52
67738;BME280;54534;43.612;1.572;2022-07-09T05:17:21;99913.00;;;25.36;45.89
67738;BME280;54534;43.612;1.572;2022-07-09T05:19:47;99916.69;;;25.35;45.33
67738;BME280;54534;43.612;1.572;2022-07-09T05:22:12;99912.13;;;25.35;45.82
67738;BME280;54534;43.612;1.572;2022-07-09T05:24:37;99917.69;;;25.33;45.49
67738;BME280;54534;43.612;1.572;2022-07-09T05:27:03;99915.84;;;25.34;45.61
67738;BME280;54534;43.612;1.572;2022-07-09T05:29:29;99915.84;;;25.34;45.46
67738;BME280;54534;43.612;1.572;2022-07-09T05:31:54;99918.66;;;25.32;45.80
67738;BME280;54534;43.612;1.572;2022-07-09T05:34:23;99915.16;;;25.32;45.53
67738;BME280;54534;43.612;1.572;2022-07-09T05:36:48;99914.13;;;25.33;45.59
67738;BME280;54534;43.612;1.572;2022-07-09T05:39:14;99918.66;;;25.32;45.33
67738;BME280;54534;43.612;1.572;2022-07-09T05:41:39;99918.66;;;25.32;45.27
67738;BME280;54534;43.612;1.572;2022-07-09T05:44:05;99915.16;;;25.32;45.59
67738;BME280;54534;43.612;1.572;2022-07-09T05:46:30;99908.91;;;25.31;45.43
67738;BME280;54534;43.612;1.572;2022-07-09T05:48:55;99909.78;;;25.32;45.33
67738;BME280;54534;43.612;1.572;2022-07-09T05:51:21;99909.78;;;25.32;45.77
67738;BME280;54534;43.612;1.572;2022-07-09T05:53:47;99898.16;;;25.31;45.57
67738;BME280;54534;43.612;1.572;2022-07-09T05:56:12;99909.78;;;25.32;45.70
67738;BME280;54534;43.612;1.572;2022-07-09T05:58:38;99911.63;;;25.31;45.53
67738;BME280;54534;43.612;1.572;2022-07-09T06:01:04;99906.22;;;25.31;45.58
67738;BME280;54534;43.612;1.572;2022-07-09T06:03:30;99907.22;;;25.30;45.74
67738;BME280;54534;43.612;1.572;2022-07-09T06:05:56;99909.06;;;25.30;45.50
67738;BME280;54534;43.612;1.572;2022-07-09T06:08:21;99914.31;;;25.31;45.70
67738;BME280;54534;43.612;1.572;2022-07-09T06:10:47;99910.75;;;25.31;45.72
67738;BME280;54534;43.612;1.572;2022-07-09T06:13:12;99912.59;;;25.30;45.37
67738;BME280;54534;43.612;1.572;2022-07-09T06:15:38;99910.75;;;25.31;45.61
67738;BME280;54534;43.612;1.572;2022-07-09T06:18:03;99904.53;;;25.30;45.67
67738;BME280;54534;43.612;1.572;2022-07-09T06:20:28;99907.22;;;25.30;45.63
67738;BME280;54534;43.612;1.572;2022-07-09T06:22:54;99905.53;;;25.29;45.24
67738;BME280;54534;43.612;1.572;2022-07-09T06:25:19;99912.75;;;25.29;45.72
67738;BME280;54534;43.612;1.572;2022-07-09T06:27:44;99917.13;;;25.30;45.66
67738;BME280;54534;43.612;1.572;2022-07-09T06:30:10;99916.13;;;25.31;45.38
67738;BME280;54534;43.612;1.572;2022-07-09T06:32:35;99914.44;;;25.30;45.73
67738;BME280;54534;43.612;1.572;2022-07-09T06:35:01;99912.75;;;25.29;45.48
67738;BME280;54534;43.612;1.572;2022-07-09T06:37:28;99904.69;;;25.29;45.46
67738;BME280;54534;43.612;1.572;2022-07-09T06:39:53;99907.38;;;25.29;45.46
67738;BME280;54534;43.612;1.572;2022-07-09T06:42:21;99907.38;;;25.29;45.56
67738;BME280;54534;43.612;1.572;2022-07-09T06:44:46;99915.44;;;25.29;45.68
67738;BME280;54534;43.612;1.572;2022-07-09T06:47:12;99913.75;;;25.28;45.27
67738;BME280;54534;43.612;1.572;2022-07-09T06:49:38;99906.53;;;25.28;45.63
67738;BME280;54534;43.612;1.572;2022-07-09T06:52:03;99912.75;;;25.29;45.61
67738;BME280;54534;43.612;1.572;2022-07-09T06:54:29;99918.16;;;25.29;45.11
67738;BME280;54534;43.612;1.572;2022-07-09T06:56:54;99918.16;;;25.29;45.56
67738;BME280;54534;43.612;1.572;2022-07-09T06:59:22;99912.75;;;25.29;45.55
67738;BME280;54534;43.612;1.572;2022-07-09T07:01:48;99912.75;;;25.29;45.49
67738;BME280;54534;43.612;1.572;2022-07-09T07:04:13;99912.75;;;25.29;45.33
67738;BME280;54534;43.612;1.572;2022-07-09T07:06:41;99913.63;;;25.29;45.09
67738;BME280;54534;43.612;1.572;2022-07-09T07:09:06;99916.44;;;25.28;45.29
67738;BME280;54534;43.612;1.572;2022-07-09T07:11:31;99923.53;;;25.29;45.11
67738;BME280;54534;43.612;1.572;2022-07-09T07:13:57;99923.66;;;25.27;45.40
67738;BME280;54534;43.612;1.572;2022-07-09T07:16:22;99920.97;;;25.27;45.43
67738;BME280;54534;43.612;1.572;2022-07-09T07:18:48;99924.50;;;25.28;44.96
67738;BME280;54534;43.612;1.572;2022-07-09T07:21:13;99922.69;;;25.28;45.24
67738;BME280;54534;43.612;1.572;2022-07-09T07:23:38;99922.69;;;25.28;45.07
67738;BME280;54534;43.612;1.572;2022-07-09T07:26:04;99924.50;;;25.28;45.34
67738;BME280;54534;43.612;1.572;2022-07-09T07:28:29;99928.19;;;25.27;45.40
67738;BME280;54534;43.612;1.572;2022-07-09T07:30:54;99921.81;;;25.28;45.06
67738;BME280;54534;43.612;1.572;2022-07-09T07:33:20;99920.13;;;25.27;45.25
67738;BME280;54534;43.612;1.572;2022-07-09T07:35:45;99914.72;;;25.27;45.42
67738;BME280;54534;43.612;1.572;2022-07-09T07:38:11;99919.28;;;25.26;45.34
67738;BME280;54534;43.612;1.572;2022-07-09T07:40:36;99914.72;;;25.27;45.17
67738;BME280;54534;43.612;1.572;2022-07-09T07:43:02;99920.97;;;25.27;45.30
67738;BME280;54534;43.612;1.572;2022-07-09T07:45:28;99917.28;;;25.28;45.32
67738;BME280;54534;43.612;1.572;2022-07-09T07:47:53;99923.81;;;25.26;45.36
67738;BME280;54534;43.612;1.572;2022-07-09T07:50:20;99915.75;;;25.26;45.40
67738;BME280;54534;43.612;1.572;2022-07-09T07:52:46;99913.06;;;25.26;45.10
67738;BME280;54534;43.612;1.572;2022-07-09T07:55:11;99920.13;;;25.27;45.16
67738;BME280;54534;43.612;1.572;2022-07-09T07:57:36;99916.44;;;25.28;44.95
67738;BME280;54534;43.612;1.572;2022-07-09T08:00:03;99922.81;;;25.27;45.36
67738;BME280;54534;43.612;1.572;2022-07-09T08:02:29;99936.25;;;25.27;44.88
67738;BME280;54534;43.612;1.572;2022-07-09T08:04:55;99934.59;;;25.26;45.19
67738;BME280;54534;43.612;1.572;2022-07-09T08:07:20;99935.44;;;25.26;44.93
67738;BME280;54534;43.612;1.572;2022-07-09T08:09:46;99926.50;;;25.26;44.88
67738;BME280;54534;43.612;1.572;2022-07-09T08:12:11;99919.28;;;25.26;45.02
67738;BME280;54534;43.612;1.572;2022-07-09T08:14:37;99920.13;;;25.27;44.79
67738;BME280;54534;43.612;1.572;2022-07-09T08:17:02;99925.50;;;25.27;45.08
67738;BME280;54534;43.612;1.572;2022-07-09T08:19:27;99914.72;;;25.27;45.09
67738;BME280;54534;43.612;1.572;2022-07-09T08:21:53;99917.41;;;25.27;45.14
67738;BME280;54534;43.612;1.572;2022-07-09T08:24:18;99908.53;;;25.26;44.87
67738;BME280;54534;43.612;1.572;2022-07-09T08:26:43;99914.72;;;25.27;45.23
67738;BME280;54534;43.612;1.572;2022-07-09T08:29:09;99923.66;;;25.27;45.14
67738;BME280;54534;43.612;1.572;2022-07-09T08:31:34;99919.97;;;25.28;45.34
67738;BME280;54534;43.612;1.572;2022-07-09T08:34:00;99909.34;;;25.27;45.10
67738;BME280;54534;43.612;1.572;2022-07-09T08:36:25;99915.44;;;25.29;45.14
67738;BME280;54534;43.612;1.572;2022-07-09T08:38:51;99903.84;;;25.28;44.84
67738;BME280;54534;43.612;1.572;2022-07-09T08:41:18;99910.19;;;25.27;45.13
67738;BME280;54534;43.612;1.572;2022-07-09T08:43:48;99914.59;;;25.28;44.98
67738;BME280;54534;43.612;1.572;2022-07-09T08:46:14;99908.38;;;25.28;45.14
67738;BME280;54534;43.612;1.572;2022-07-09T08:48:43;99909.22;;;25.28;44.67
67738;BME280;54534;43.612;1.572;2022-07-09T08:51:09;99901.13;;;25.28;45.08
67738;BME280;54534;43.612;1.572;2022-07-09T08:53:40;99905.53;;;25.29;44.79
67738;BME280;54534;43.612;1.572;2022-07-09T08:56:06;99910.91;;;25.29;44.70
67738;BME280;54534;43.612;1.572;2022-07-09T08:58:31;99902.00;;;25.29;45.05
67738;BME280;54534;43.612;1.572;2022-07-09T09:00:57;99902.00;;;25.29;45.08
67738;BME280;54534;43.612;1.572;2022-07-09T09:03:24;99902.13;;;25.27;44.91
67738;BME280;54534;43.612;1.572;2022-07-09T09:06:06;99895.59;;;25.30;44.85
67738;BME280;54534;43.612;1.572;2022-07-09T09:08:44;99893.91;;;25.29;44.86
67738;BME280;54534;43.612;1.572;2022-07-09T09:11:36;99902.00;;;25.29;44.90
67738;BME280;54534;43.612;1.572;2022-07-09T09:14:02;99896.59;;;25.29;45.00
67738;BME280;54534;43.612;1.572;2022-07-09T09:16:28;99892.09;;;25.29;44.68
67738;BME280;54534;43.612;1.572;2022-07-09T09:18:54;99884.81;;;25.30;44.94
67738;BME280;54534;43.612;1.572;2022-07-09T09:21:25;99878.63;;;25.29;45.04
67738;BME280;54534;43.612;1.572;2022-07-09T09:23:53;99876.75;;;25.30;44.71
67738;BME280;54534;43.612;1.572;2022-07-09T09:29:02;99872.22;;;25.30;44.67
67738;BME280;54534;43.612;1.572;2022-07-09T09:31:32;99868.69;;;25.30;44.99
67738;BME280;54534;43.612;1.572;2022-07-09T09:34:17;99872.22;;;25.30;44.84
67738;BME280;54534;43.612;1.572;2022-07-09T09:36:45;99873.25;;;25.29;44.99
67738;BME280;54534;43.612;1.572;2022-07-09T09:39:23;99868.69;;;25.30;45.06
67738;BME280;54534;43.612;1.572;2022-07-09T09:42:00;99873.06;;;25.31;44.47
67738;BME280;54534;43.612;1.572;2022-07-09T09:44:33;99872.22;;;25.30;44.97
67738;BME280;54534;43.612;1.572;2022-07-09T09:47:03;99864.31;;;25.29;44.75
67738;BME280;54534;43.612;1.572;2022-07-09T09:49:29;99862.31;;;25.31;44.80
67738;BME280;54534;43.612;1.572;2022-07-09T09:52:04;99857.78;;;25.31;44.64
67738;BME280;54534;43.612;1.572;2022-07-09T09:54:38;99864.00;;;25.32;44.92
67738;BME280;54534;43.612;1.572;2022-07-09T09:57:06;99865.00;;;25.31;45.04
67738;BME280;54534;43.612;1.572;2022-07-09T09:59:33;99867.53;;;25.32;45.02
67738;BME280;54534;43.612;1.572;2022-07-09T10:02:00;99863.84;;;25.33;44.61
67738;BME280;54534;43.612;1.572;2022-07-09T10:04:26;99871.94;;;25.33;44.55
67738;BME280;54534;43.612;1.572;2022-07-09T10:06:53;99865.69;;;25.33;44.92
67738;BME280;54534;43.612;1.572;2022-07-09T10:09:19;99873.75;;;25.33;44.51
67738;BME280;54534;43.612;1.572;2022-07-09T10:11:48;99871.94;;;25.33;44.58
67738;BME280;54534;43.612;1.572;2022-07-09T10:14:31;99875.47;;;25.34;44.75
67738;BME280;54534;43.612;1.572;2022-07-09T10:17:12;99871.06;;;25.33;44.89
67738;BME280;54534;43.612;1.572;2022-07-09T10:19:49;99865.69;;;25.33;44.41
67738;BME280;54534;43.612;1.572;2022-07-09T10:22:15;99861.16;;;25.33;44.79
67738;BME280;54534;43.612;1.572;2022-07-09T10:24:44;99864.69;;;25.34;44.56
67738;BME280;54534;43.612;1.572;2022-07-09T10:27:11;99864.84;;;25.32;44.77
67738;BME280;54534;43.612;1.572;2022-07-09T10:32:30;99869.06;;;25.35;44.88
67738;BME280;54534;43.612;1.572;2022-07-09T10:35:03;99857.47;;;25.35;44.34
67738;BME280;54534;43.612;1.572;2022-07-09T10:40:12;99853.78;;;25.36;44.46
67738;BME280;54534;43.612;1.572;2022-07-09T10:42:39;99851.25;;;25.34;44.43
67738;BME280;54534;43.612;1.572;2022-07-09T10:47:43;99852.91;;;25.35;44.37
67738;BME280;54534;43.612;1.572;2022-07-09T10:50:09;99864.53;;;25.36;44.53
67738;BME280;54534;43.612;1.572;2022-07-09T10:52:35;99844.84;;;25.35;44.43
67738;BME280;54534;43.612;1.572;2022-07-09T10:55:01;99846.56;;;25.36;44.47
67738;BME280;54534;43.612;1.572;2022-07-09T10:57:26;99838.47;;;25.36;44.71
67738;BME280;54534;43.612;1.572;2022-07-09T10:59:51;99837.50;;;25.37;44.54
67738;BME280;54534;43.612;1.572;2022-07-09T11:02:18;99837.50;;;25.37;44.27
67738;BME280;54534;43.612;1.572;2022-07-09T11:04:48;99839.16;;;25.38;44.67
67738;BME280;54534;43.612;1.572;2022-07-09T11:07:19;99833.78;;;25.38;44.73
67738;BME280;54534;43.612;1.572;2022-07-09T11:09:46;99830.22;;;25.38;44.62
67738;BME280;54534;43.612;1.572;2022-07-09T11:12:15;99832.09;;;25.37;44.39
67738;BME280;54534;43.612;1.572;2022-07-09T11:14:48;99835.47;;;25.39;44.39
67738;BME280;54534;43.612;1.572;2022-07-09T11:17:18;99826.56;;;25.39;44.78
67738;BME280;54534;43.612;1.572;2022-07-09T11:19:44;99819.47;;;25.38;44.39
67738;BME280;54534;43.612;1.572;2022-07-09T11:22:10;99823.69;;;25.40;44.55
67738;BME280;54534;43.612;1.572;2022-07-09T11:24:36;99820.31;;;25.38;44.67
67738;BME280;54534;43.612;1.572;2022-07-09T11:27:02;99822.88;;;25.40;44.53
67738;BME280;54534;43.612;1.572;2022-07-09T11:29:28;99810.25;;;25.40;44.68
67738;BME280;54534;43.612;1.572;2022-07-09T11:31:53;99803.00;;;25.41;44.58
67738;BME280;54534;43.612;1.572;2022-07-09T11:34:20;99802.16;;;25.40;44.32
67738;BME280;54534;43.612;1.572;2022-07-09T11:36:56;99806.56;;;25.41;44.51
67738;BME280;54534;43.612;1.572;2022-07-09T11:39:22;99799.47;;;25.40;44.38
67738;BME280;54534;43.612;1.572;2022-07-09T11:41:48;99802.03;;;25.42;44.59
67738;BME280;54534;43.612;1.572;2022-07-09T11:46:45;99793.94;;;25.42;44.26
67738;BME280;54534;43.612;1.572;2022-07-09T11:49:14;99791.25;;;25.42;44.80
67738;BME280;54534;43.612;1.572;2022-07-09T11:51:41;99798.47;;;25.41;44.58
67738;BME280;54534;43.612;1.572;2022-07-09T11:54:06;99789.41;;;25.42;44.51
67738;BME280;54534;43.612;1.572;2022-07-09T11:56:42;99791.09;;;25.43;44.70
67738;BME280;54534;43.612;1.572;2022-07-09T11:59:12;99782.16;;;25.43;44.38
67738;BME280;54534;43.612;1.572;2022-07-09T12:01:38;99778.66;;;25.42;44.36
67738;BME280;54534;43.612;1.572;2022-07-09T12:04:04;99774.09;;;25.43;44.47
67738;BME280;54534;43.612;1.572;2022-07-09T12:06:29;99784.72;;;25.44;44.88
67738;BME280;54534;43.612;1.572;2022-07-09T12:08:59;99772.25;;;25.43;44.48
67738;BME280;54534;43.612;1.572;2022-07-09T12:11:28;99776.66;;;25.44;44.45
67738;BME280;54534;43.612;1.572;2022-07-09T12:13:55;99768.56;;;25.44;44.31
67738;BME280;54534;43.612;1.572;2022-07-09T12:16:21;99771.25;;;25.44;44.44
67738;BME280;54534;43.612;1.572;2022-07-09T12:18:46;99762.34;;;25.44;44.62
67738;BME280;54534;43.612;1.572;2022-07-09T12:21:11;99766.72;;;25.45;44.63
67738;BME280;54534;43.612;1.572;2022-07-09T12:23:37;99771.09;;;25.46;44.54
67738;BME280;54534;43.612;1.572;2022-07-09T12:26:02;99763.88;;;25.47;44.88
67738;BME280;54534;43.612;1.572;2022-07-09T12:28:28;99770.09;;;25.47;44.80
67738;BME280;54534;43.612;1.572;2022-07-09T12:30:53;99754.94;;;25.46;44.60
67738;BME280;54534;43.612;1.572;2022-07-09T12:33:18;99763.88;;;25.47;44.61
67738;BME280;54534;43.612;1.572;2022-07-09T12:35:44;99762.88;;;25.48;44.63
67738;BME280;54534;43.612;1.572;2022-07-09T12:38:09;99748.56;;;25.47;44.50
67738;BME280;54534;43.612;1.572;2022-07-09T12:40:34;99749.41;;;25.48;44.75
67738;BME280;54534;43.612;1.572;2022-07-09T12:43:00;99749.41;;;25.48;44.62
67738;BME280;54534;43.612;1.572;2022-07-09T12:45:26;99749.41;;;25.48;44.35
67738;BME280;54534;43.612;1.572;2022-07-09T12:47:52;99746.56;;;25.49;44.48
67738;BME280;54534;43.612;1.572;2022-07-09T12:50:17;99744.84;;;25.48;44.53
67738;BME280;54534;43.612;1.572;2022-07-09T12:52:42;99741.34;;;25.48;44.49
67738;BME280;54534;43.612;1.572;2022-07-09T12:55:08;99740.19;;;25.50;44.43
67738;BME280;54534;43.612;1.572;2022-07-09T12:57:35;99740.19;;;25.50;44.34
67738;BME280;54534;43.612;1.572;2022-07-09T13:00:01;99723.19;;;25.50;44.52
67738;BME280;54534;43.612;1.572;2022-07-09T13:02:27;99737.50;;;25.50;44.33
67738;BME280;54534;43.612;1.572;2022-07-09T13:04:53;99733.78;;;25.51;44.18
67738;BME280;54534;43.612;1.572;2022-07-09T13:07:18;99731.94;;;25.52;44.55
67738;BME280;54534;43.612;1.572;2022-07-09T13:09:44;99733.78;;;25.51;44.67